sensor_id;sensor_type;location;lat;lon;timestamp;temperature;humidity
19586;DHT22;9939;49.246;9.106;2023-07-20T00:02:13;18.60;99.90
19586;DHT22;9939;49.246;9.106;2023-07-20T00:04:57;18.50;99.90
19586;DHT22;9939;49.246;9.106;2023-07-20T00:07:24;18.40;99.90
19586;DHT22;9939;49.246;9.106;2023-07-20T00:09:51;18.30;99.90
19586;DHT22;9939;49.246;9.106;2023-07-20T00:12:18;18.30;99.90
19586;DHT22;9939;49.246;9.106;2023-07-20T00:14:45;18.20;99.90
19586;DHT22;9939;49.246;9.106;2023-07-20T00:17:12;18.20;99.90
19586;DHT22;9939;49.246;9.106;2023-07-20T00:19:38;18.20;99.90
19586;DHT22;9939;49.246;9.106;2023-07-20T00:22:05;18.20;99.90
19586;DHT22;9939;49.246;9.106;2023-07-20T00:24:32;18.30;99.90
19586;DHT22;9939;49.246;9.106;2023-07-20T00:26:59;18.30;99.90
19586;DHT22;9939;49.246;9.106;2023-07-20T00:29:27;18.30;99.90
19586;DHT22;9939;49.246;9.106;2023-07-20T00:31:54;18.10;99.90
19586;DHT22;9939;49.246;9.106;2023-07-20T00:34:22;18.40;99.90
19586;DHT22;9939;49.246;9.106;2023-07-20T00:36:49;18.30;99.90
19586;DHT22;9939;49.246;9.106;2023-07-20T00:39:16;18.20;99.90
19586;DHT22;9939;49.246;9.106;2023-07-20T00:41:43;18.10;99.90
19586;DHT22;9939;49.246;9.106;2023-07-20T00:44:09;18.00;99.90
19586;DHT22;9939;49.246;9.106;2023-07-20T00:46:37;17.80;99.90
19586;DHT22;9939;49.246;9.106;2023-07-20T00:49:05;17.70;99.90
19586;DHT22;9939;49.246;9.106;2023-07-20T00:51:32;17.90;99.90
19586;DHT22;9939;49.246;9.106;2023-07-20T00:54:01;17.80;99.90
19586;DHT22;9939;49.246;9.106;2023-07-20T00:56:28;17.70;99.90
19586;DHT22;9939;49.246;9.106;2023-07-20T00:58:55;17.60;99.90
19586;DHT22;9939;49.246;9.106;2023-07-20T01:01:22;17.60;99.90
19586;DHT22;9939;49.246;9.106;2023-07-20T01:03:49;17.50;99.90
19586;DHT22;9939;49.246;9.106;2023-07-20T01:08:54;17.50;99.90
19586;DHT22;9939;49.246;9.106;2023-07-20T01:13:54;17.30;99.90
19586;DHT22;9939;49.246;9.106;2023-07-20T01:16:21;17.30;99.90
19586;DHT22;9939;49.246;9.106;2023-07-20T01:18:48;17.20;99.90
19586;DHT22;9939;49.246;9.106;2023-07-20T01:21:18;17.30;99.90
19586;DHT22;9939;49.246;9.106;2023-07-20T01:26:38;17.30;99.90
19586;DHT22;9939;49.246;9.106;2023-07-20T01:31:38;17.10;99.90
19586;DHT22;9939;49.246;9.106;2023-07-20T01:34:05;17.00;99.90
19586;DHT22;9939;49.246;9.106;2023-07-20T01:36:35;17.00;99.90
19586;DHT22;9939;49.246;9.106;2023-07-20T01:39:02;16.90;99.90
19586;DHT22;9939;49.246;9.106;2023-07-20T01:41:31;17.00;99.90
19586;DHT22;9939;49.246;9.106;2023-07-20T01:43:58;17.10;99.90
19586;DHT22;9939;49.246;9.106;2023-07-20T01:46:26;17.20;99.90
19586;DHT22;9939;49.246;9.106;2023-07-20T01:48:54;17.20;99.90
19586;DHT22;9939;49.246;9.106;2023-07-20T01:51:21;17.20;99.90
19586;DHT22;9939;49.246;9.106;2023-07-20T01:53:48;17.30;99.90
19586;DHT22;9939;49.246;9.106;2023-07-20T01:56:14;17.20;99.90
19586;DHT22;9939;49.246;9.106;2023-07-20T01:58:42;17.20;99.90
19586;DHT22;9939;49.246;9.106;2023-07-20T02:01:08;17.30;99.90
19586;DHT22;9939;49.246;9.106;2023-07-20T02:03:35;17.40;99.90
19586;DHT22;9939;49.246;9.106;2023-07-20T02:06:02;17.20;99.90
19586;DHT22;9939;49.246;9.106;2023-07-20T02:08:29;17.10;99.90
19586;DHT22;9939;49.246;9.106;2023-07-20T02:10:56;17.10;99.90
19586;DHT22;9939;49.246;9.106;2023-07-20T02:13:23;17.10;99.90
19586;DHT22;9939;49.246;9.106;2023-07-20T02:15:50;17.10;99.90
19586;DHT22;9939;49.246;9.106;2023-07-20T02:18:17;17.10;99.90
19586;DHT22;9939;49.246;9.106;2023-07-20T02:20:44;17.10;99.90
19586;DHT22;9939;49.246;9.106;2023-07-20T02:23:11;17.10;99.90
19586;DHT22;9939;49.246;9.106;2023-07-20T02:25:38;17.00;99.90
19586;DHT22;9939;49.246;9.106;2023-07-20T02:28:07;16.90;99.90
19586;DHT22;9939;49.246;9.106;2023-07-20T02:30:37;16.90;99.90
19586;DHT22;9939;49.246;9.106;2023-07-20T02:33:04;16.80;99.90
19586;DHT22;9939;49.246;9.106;2023-07-20T02:35:32;16.80;99.90
19586;DHT22;9939;49.246;9.106;2023-07-20T02:37:59;16.70;99.90
19586;DHT22;9939;49.246;9.106;2023-07-20T02:40:26;16.70;99.90
19586;DHT22;9939;49.246;9.106;2023-07-20T02:42:54;16.60;99.90
19586;DHT22;9939;49.246;9.106;2023-07-20T02:45:21;16.60;99.90
19586;DHT22;9939;49.246;9.106;2023-07-20T02:47:48;16.70;99.90
19586;DHT22;9939;49.246;9.106;2023-07-20T02:50:14;16.50;99.90
19586;DHT22;9939;49.246;9.106;2023-07-20T02:52:41;16.60;99.90
19586;DHT22;9939;49.246;9.106;2023-07-20T02:55:08;16.50;99.90
19586;DHT22;9939;49.246;9.106;2023-07-20T02:57:35;16.40;99.90
19586;DHT22;9939;49.246;9.106;2023-07-20T03:00:03;16.50;99.90
19586;DHT22;9939;49.246;9.106;2023-07-20T03:02:31;16.60;99.90
19586;DHT22;9939;49.246;9.106;2023-07-20T03:04:57;16.70;99.90
19586;DHT22;9939;49.246;9.106;2023-07-20T03:07:26;16.50;99.90
19586;DHT22;9939;49.246;9.106;2023-07-20T03:09:53;16.50;99.90
19586;DHT22;9939;49.246;9.106;2023-07-20T03:12:19;16.40;99.90
19586;DHT22;9939;49.246;9.106;2023-07-20T03:14:47;16.30;99.90
19586;DHT22;9939;49.246;9.106;2023-07-20T03:17:14;16.30;99.90
19586;DHT22;9939;49.246;9.106;2023-07-20T03:19:40;16.20;99.90
19586;DHT22;9939;49.246;9.106;2023-07-20T03:22:08;16.30;99.90
19586;DHT22;9939;49.246;9.106;2023-07-20T03:24:35;16.30;99.90
19586;DHT22;9939;49.246;9.106;2023-07-20T03:27:02;16.20;99.90
19586;DHT22;9939;49.246;9.106;2023-07-20T03:29:31;16.10;99.90
19586;DHT22;9939;49.246;9.106;2023-07-20T03:31:58;16.00;99.90
19586;DHT22;9939;49.246;9.106;2023-07-20T03:34:26;15.90;99.90
19586;DHT22;9939;49.246;9.106;2023-07-20T03:36:52;15.90;99.90
19586;DHT22;9939;49.246;9.106;2023-07-20T03:39:19;15.90;99.90
19586;DHT22;9939;49.246;9.106;2023-07-20T03:41:46;15.80;99.90
19586;DHT22;9939;49.246;9.106;2023-07-20T03:44:13;15.90;99.90
19586;DHT22;9939;49.246;9.106;2023-07-20T03:46:40;16.00;99.90
19586;DHT22;9939;49.246;9.106;2023-07-20T03:49:07;15.90;99.90
19586;DHT22;9939;49.246;9.106;2023-07-20T03:51:35;15.90;99.90
19586;DHT22;9939;49.246;9.106;2023-07-20T03:54:02;15.80;99.90
19586;DHT22;9939;49.246;9.106;2023-07-20T03:56:29;15.80;99.90
19586;DHT22;9939;49.246;9.106;2023-07-20T03:59:01;15.80;99.90
19586;DHT22;9939;49.246;9.106;2023-07-20T04:01:27;15.80;99.90
19586;DHT22;9939;49.246;9.106;2023-07-20T04:03:54;15.70;99.90
19586;DHT22;9939;49.246;9.106;2023-07-20T04:06:22;15.80;99.90
19586;DHT22;9939;49.246;9.106;2023-07-20T04:08:49;15.70;99.90
19586;DHT22;9939;49.246;9.106;2023-07-20T04:11:16;15.80;99.90
19586;DHT22;9939;49.246;9.106;2023-07-20T04:13:43;15.70;99.90
19586;DHT22;9939;49.246;9.106;2023-07-20T04:16:09;15.70;99.90
19586;DHT22;9939;49.246;9.106;2023-07-20T04:18:36;15.80;99.90
19586;DHT22;9939;49.246;9.106;2023-07-20T04:21:03;15.70;99.90
19586;DHT22;9939;49.246;9.106;2023-07-20T04:23:30;15.70;99.90
19586;DHT22;9939;49.246;9.106;2023-07-20T04:25:57;15.90;99.90
19586;DHT22;9939;49.246;9.106;2023-07-20T04:28:24;15.90;99.90
19586;DHT22;9939;49.246;9.106;2023-07-20T04:30:52;15.80;99.90
19586;DHT22;9939;49.246;9.106;2023-07-20T04:33:21;15.90;99.90
19586;DHT22;9939;49.246;9.106;2023-07-20T04:35:51;16.00;99.90
19586;DHT22;9939;49.246;9.106;2023-07-20T04:38:31;16.10;99.90
19586;DHT22;9939;49.246;9.106;2023-07-20T04:41:08;16.10;99.90
19586;DHT22;9939;49.246;9.106;2023-07-20T04:43:43;16.10;99.90
19586;DHT22;9939;49.246;9.106;2023-07-20T04:46:12;16.20;99.90
19586;DHT22;9939;49.246;9.106;2023-07-20T04:48:40;16.20;99.90
19586;DHT22;9939;49.246;9.106;2023-07-20T04:51:07;16.60;99.90
19586;DHT22;9939;49.246;9.106;2023-07-20T04:53:35;16.30;99.90
19586;DHT22;9939;49.246;9.106;2023-07-20T04:56:02;16.30;99.90
19586;DHT22;9939;49.246;9.106;2023-07-20T04:58:29;16.50;99.90
19586;DHT22;9939;49.246;9.106;2023-07-20T05:00:56;16.40;99.90
19586;DHT22;9939;49.246;9.106;2023-07-20T05:03:23;16.60;99.90
19586;DHT22;9939;49.246;9.106;2023-07-20T05:05:50;16.60;99.90
19586;DHT22;9939;49.246;9.106;2023-07-20T05:08:17;16.80;99.90
19586;DHT22;9939;49.246;9.106;2023-07-20T05:10:44;16.80;99.90
19586;DHT22;9939;49.246;9.106;2023-07-20T05:13:12;16.90;99.90
19586;DHT22;9939;49.246;9.106;2023-07-20T05:15:39;16.90;99.90
19586;DHT22;9939;49.246;9.106;2023-07-20T05:18:11;17.00;99.90
19586;DHT22;9939;49.246;9.106;2023-07-20T05:20:38;17.10;99.90
19586;DHT22;9939;49.246;9.106;2023-07-20T05:23:05;17.30;99.90
19586;DHT22;9939;49.246;9.106;2023-07-20T05:25:32;17.50;99.90
19586;DHT22;9939;49.246;9.106;2023-07-20T05:27:59;17.60;99.90
19586;DHT22;9939;49.246;9.106;2023-07-20T05:30:26;17.70;99.90
19586;DHT22;9939;49.246;9.106;2023-07-20T05:32:52;17.80;99.90
19586;DHT22;9939;49.246;9.106;2023-07-20T05:35:21;18.00;99.90
19586;DHT22;9939;49.246;9.106;2023-07-20T05:37:49;18.10;99.90
19586;DHT22;9939;49.246;9.106;2023-07-20T05:40:15;18.20;99.90
19586;DHT22;9939;49.246;9.106;2023-07-20T05:42:46;18.30;99.90
19586;DHT22;9939;49.246;9.106;2023-07-20T05:45:14;18.40;99.90
19586;DHT22;9939;49.246;9.106;2023-07-20T05:47:43;18.50;99.90
19586;DHT22;9939;49.246;9.106;2023-07-20T05:50:10;18.60;99.90
19586;DHT22;9939;49.246;9.106;2023-07-20T05:52:37;18.80;99.90
19586;DHT22;9939;49.246;9.106;2023-07-20T05:55:05;18.80;99.90
19586;DHT22;9939;49.246;9.106;2023-07-20T05:57:32;19.10;99.90
19586;DHT22;9939;49.246;9.106;2023-07-20T05:59:59;19.30;99.90
19586;DHT22;9939;49.246;9.106;2023-07-20T06:02:26;19.40;99.90
19586;DHT22;9939;49.246;9.106;2023-07-20T06:04:53;19.60;99.90
19586;DHT22;9939;49.246;9.106;2023-07-20T06:07:21;19.80;99.90
19586;DHT22;9939;49.246;9.106;2023-07-20T06:09:47;19.90;99.90
19586;DHT22;9939;49.246;9.106;2023-07-20T06:12:14;20.20;99.90
19586;DHT22;9939;49.246;9.106;2023-07-20T06:14:41;20.40;99.90
19586;DHT22;9939;49.246;9.106;2023-07-20T06:17:08;20.30;99.90
19586;DHT22;9939;49.246;9.106;2023-07-20T06:19:35;20.40;99.90
19586;DHT22;9939;49.246;9.106;2023-07-20T06:22:02;20.40;99.90
19586;DHT22;9939;49.246;9.106;2023-07-20T06:24:28;20.40;99.90
19586;DHT22;9939;49.246;9.106;2023-07-20T06:26:55;20.40;99.90
19586;DHT22;9939;49.246;9.106;2023-07-20T06:29:22;20.60;99.90
19586;DHT22;9939;49.246;9.106;2023-07-20T06:31:48;20.80;99.90
19586;DHT22;9939;49.246;9.106;2023-07-20T06:34:15;21.00;99.90
19586;DHT22;9939;49.246;9.106;2023-07-20T06:36:43;21.00;99.90
19586;DHT22;9939;49.246;9.106;2023-07-20T06:39:10;20.90;99.90
19586;DHT22;9939;49.246;9.106;2023-07-20T06:41:40;21.00;99.90
19586;DHT22;9939;49.246;9.106;2023-07-20T06:44:08;21.20;99.90
19586;DHT22;9939;49.246;9.106;2023-07-20T06:46:35;21.30;99.90
19586;DHT22;9939;49.246;9.106;2023-07-20T06:49:02;21.40;99.90
19586;DHT22;9939;49.246;9.106;2023-07-20T06:51:32;21.10;99.90
19586;DHT22;9939;49.246;9.106;2023-07-20T06:53:58;21.00;99.90
19586;DHT22;9939;49.246;9.106;2023-07-20T06:56:25;21.00;99.90
19586;DHT22;9939;49.246;9.106;2023-07-20T06:58:54;21.20;99.90
19586;DHT22;9939;49.246;9.106;2023-07-20T07:01:21;21.20;99.90
19586;DHT22;9939;49.246;9.106;2023-07-20T07:03:49;21.40;99.90
19586;DHT22;9939;49.246;9.106;2023-07-20T07:06:21;21.40;99.90
19586;DHT22;9939;49.246;9.106;2023-07-20T07:08:50;21.70;99.90
19586;DHT22;9939;49.246;9.106;2023-07-20T07:11:16;21.90;99.90
19586;DHT22;9939;49.246;9.106;2023-07-20T07:13:43;22.00;99.90
19586;DHT22;9939;49.246;9.106;2023-07-20T07:16:13;22.00;99.90
19586;DHT22;9939;49.246;9.106;2023-07-20T07:18:46;22.20;99.90
19586;DHT22;9939;49.246;9.106;2023-07-20T07:21:13;21.90;99.90
19586;DHT22;9939;49.246;9.106;2023-07-20T07:23:40;21.60;99.90
19586;DHT22;9939;49.246;9.106;2023-07-20T07:26:07;21.70;99.90
19586;DHT22;9939;49.246;9.106;2023-07-20T07:28:34;21.80;99.90
19586;DHT22;9939;49.246;9.106;2023-07-20T07:31:00;21.80;99.90
19586;DHT22;9939;49.246;9.106;2023-07-20T07:33:27;21.50;99.90
19586;DHT22;9939;49.246;9.106;2023-07-20T07:35:54;22.10;99.90
19586;DHT22;9939;49.246;9.106;2023-07-20T07:38:20;22.30;99.90
19586;DHT22;9939;49.246;9.106;2023-07-20T07:41:07;22.20;99.90
19586;DHT22;9939;49.246;9.106;2023-07-20T07:43:34;22.60;99.90
19586;DHT22;9939;49.246;9.106;2023-07-20T07:46:01;22.90;99.90
19586;DHT22;9939;49.246;9.106;2023-07-20T07:48:28;22.90;99.90
19586;DHT22;9939;49.246;9.106;2023-07-20T07:50:55;22.70;99.90
19586;DHT22;9939;49.246;9.106;2023-07-20T07:53:22;23.10;99.90
19586;DHT22;9939;49.246;9.106;2023-07-20T07:55:49;23.20;99.90
19586;DHT22;9939;49.246;9.106;2023-07-20T07:58:15;22.90;99.90
19586;DHT22;9939;49.246;9.106;2023-07-20T08:00:44;23.20;99.90
19586;DHT22;9939;49.246;9.106;2023-07-20T08:03:11;23.10;99.90
19586;DHT22;9939;49.246;9.106;2023-07-20T08:05:38;23.10;99.90
19586;DHT22;9939;49.246;9.106;2023-07-20T08:08:05;23.50;99.90
19586;DHT22;9939;49.246;9.106;2023-07-20T08:10:31;23.20;99.90
19586;DHT22;9939;49.246;9.106;2023-07-20T08:12:58;23.10;99.90
19586;DHT22;9939;49.246;9.106;2023-07-20T08:15:25;23.10;99.90
19586;DHT22;9939;49.246;9.106;2023-07-20T08:17:52;23.20;99.90
19586;DHT22;9939;49.246;9.106;2023-07-20T08:20:19;22.80;99.90
19586;DHT22;9939;49.246;9.106;2023-07-20T08:22:46;23.00;99.90
19586;DHT22;9939;49.246;9.106;2023-07-20T08:25:14;22.90;99.90
19586;DHT22;9939;49.246;9.106;2023-07-20T08:27:41;22.50;99.90
19586;DHT22;9939;49.246;9.106;2023-07-20T08:30:08;22.80;99.90
19586;DHT22;9939;49.246;9.106;2023-07-20T08:32:35;23.50;99.90
19586;DHT22;9939;49.246;9.106;2023-07-20T08:35:02;23.10;99.90
19586;DHT22;9939;49.246;9.106;2023-07-20T08:37:28;23.10;99.90
19586;DHT22;9939;49.246;9.106;2023-07-20T08:39:55;22.90;99.90
19586;DHT22;9939;49.246;9.106;2023-07-20T08:42:22;22.50;99.90
19586;DHT22;9939;49.246;9.106;2023-07-20T08:44:49;22.80;99.90
19586;DHT22;9939;49.246;9.106;2023-07-20T08:47:16;22.80;99.90
19586;DHT22;9939;49.246;9.106;2023-07-20T08:49:43;23.10;99.90
19586;DHT22;9939;49.246;9.106;2023-07-20T08:52:11;23.10;99.90
19586;DHT22;9939;49.246;9.106;2023-07-20T08:54:38;23.90;99.90
19586;DHT22;9939;49.246;9.106;2023-07-20T08:57:05;24.10;99.90
19586;DHT22;9939;49.246;9.106;2023-07-20T08:59:34;24.00;99.90
19586;DHT22;9939;49.246;9.106;2023-07-20T09:02:02;23.80;99.90
19586;DHT22;9939;49.246;9.106;2023-07-20T09:04:30;23.60;99.90
19586;DHT22;9939;49.246;9.106;2023-07-20T09:06:58;23.40;99.90
19586;DHT22;9939;49.246;9.106;2023-07-20T09:09:25;23.10;99.90
19586;DHT22;9939;49.246;9.106;2023-07-20T09:11:51;23.20;99.90
19586;DHT22;9939;49.246;9.106;2023-07-20T09:14:18;23.50;99.90
19586;DHT22;9939;49.246;9.106;2023-07-20T09:16:53;24.00;99.90
19586;DHT22;9939;49.246;9.106;2023-07-20T09:19:21;24.60;99.90
19586;DHT22;9939;49.246;9.106;2023-07-20T09:21:48;24.80;99.90
19586;DHT22;9939;49.246;9.106;2023-07-20T09:24:16;24.70;99.90
19586;DHT22;9939;49.246;9.106;2023-07-20T09:26:44;25.30;99.90
19586;DHT22;9939;49.246;9.106;2023-07-20T09:29:11;25.80;99.90
19586;DHT22;9939;49.246;9.106;2023-07-20T09:31:38;25.40;99.90
19586;DHT22;9939;49.246;9.106;2023-07-20T09:34:08;24.80;99.90
19586;DHT22;9939;49.246;9.106;2023-07-20T09:36:37;25.30;99.90
19586;DHT22;9939;49.246;9.106;2023-07-20T09:39:07;26.00;99.90
19586;DHT22;9939;49.246;9.106;2023-07-20T09:41:43;26.70;99.90
19586;DHT22;9939;49.246;9.106;2023-07-20T09:44:15;27.60;99.90
19586;DHT22;9939;49.246;9.106;2023-07-20T09:46:48;28.90;98.90
19586;DHT22;9939;49.246;9.106;2023-07-20T09:49:18;28.80;97.40
19586;DHT22;9939;49.246;9.106;2023-07-20T09:51:48;28.50;98.10
19586;DHT22;9939;49.246;9.106;2023-07-20T09:54:15;28.70;98.20
19586;DHT22;9939;49.246;9.106;2023-07-20T09:56:42;29.80;96.30
19586;DHT22;9939;49.246;9.106;2023-07-20T09:59:09;29.80;95.60
19586;DHT22;9939;49.246;9.106;2023-07-20T10:01:36;29.70;95.20
19586;DHT22;9939;49.246;9.106;2023-07-20T10:04:05;29.30;96.20
19586;DHT22;9939;49.246;9.106;2023-07-20T10:06:33;29.80;95.60
19586;DHT22;9939;49.246;9.106;2023-07-20T10:09:03;29.50;95.00
19586;DHT22;9939;49.246;9.106;2023-07-20T10:11:31;28.30;95.40
19586;DHT22;9939;49.246;9.106;2023-07-20T10:13:59;27.80;96.10
19586;DHT22;9939;49.246;9.106;2023-07-20T10:16:31;28.50;95.20
19586;DHT22;9939;49.246;9.106;2023-07-20T10:21:25;29.60;94.50
19586;DHT22;9939;49.246;9.106;2023-07-20T10:23:58;30.80;92.50
19586;DHT22;9939;49.246;9.106;2023-07-20T10:26:26;31.10;91.70
19586;DHT22;9939;49.246;9.106;2023-07-20T10:28:53;31.70;91.60
19586;DHT22;9939;49.246;9.106;2023-07-20T10:31:20;32.30;90.60
19586;DHT22;9939;49.246;9.106;2023-07-20T10:33:47;32.00;90.80
19586;DHT22;9939;49.246;9.106;2023-07-20T10:36:14;32.10;90.10
19586;DHT22;9939;49.246;9.106;2023-07-20T10:38:42;32.70;88.70
19586;DHT22;9939;49.246;9.106;2023-07-20T10:41:15;31.90;89.80
19586;DHT22;9939;49.246;9.106;2023-07-20T10:43:43;31.30;91.30
19586;DHT22;9939;49.246;9.106;2023-07-20T10:46:11;30.80;90.80
19586;DHT22;9939;49.246;9.106;2023-07-20T10:51:23;30.80;91.50
19586;DHT22;9939;49.246;9.106;2023-07-20T10:53:50;30.60;91.40
19586;DHT22;9939;49.246;9.106;2023-07-20T10:56:22;29.30;92.30
19586;DHT22;9939;49.246;9.106;2023-07-20T10:58:49;30.30;91.30
19586;DHT22;9939;49.246;9.106;2023-07-20T11:01:17;29.70;91.40
19586;DHT22;9939;49.246;9.106;2023-07-20T11:03:48;31.30;90.70
19586;DHT22;9939;49.246;9.106;2023-07-20T11:11:47;31.40;87.70
19586;DHT22;9939;49.246;9.106;2023-07-20T11:14:24;32.10;86.90
19586;DHT22;9939;49.246;9.106;2023-07-20T11:16:52;32.30;85.40
19586;DHT22;9939;49.246;9.106;2023-07-20T11:21:53;32.50;86.80
19586;DHT22;9939;49.246;9.106;2023-07-20T11:24:28;33.10;84.50
19586;DHT22;9939;49.246;9.106;2023-07-20T11:26:55;33.50;82.40
19586;DHT22;9939;49.246;9.106;2023-07-20T11:29:22;33.40;84.70
19586;DHT22;9939;49.246;9.106;2023-07-20T11:31:58;33.70;83.50
19586;DHT22;9939;49.246;9.106;2023-07-20T11:34:25;33.50;81.80
19586;DHT22;9939;49.246;9.106;2023-07-20T11:36:54;34.00;80.10
19586;DHT22;9939;49.246;9.106;2023-07-20T11:39:24;34.60;80.30
19586;DHT22;9939;49.246;9.106;2023-07-20T11:41:53;34.60;79.10
19586;DHT22;9939;49.246;9.106;2023-07-20T11:44:21;34.00;80.90
19586;DHT22;9939;49.246;9.106;2023-07-20T11:47:03;31.50;85.10
19586;DHT22;9939;49.246;9.106;2023-07-20T11:49:43;30.60;86.20
19586;DHT22;9939;49.246;9.106;2023-07-20T11:52:11;31.20;85.40
19586;DHT22;9939;49.246;9.106;2023-07-20T11:54:38;32.30;82.70
19586;DHT22;9939;49.246;9.106;2023-07-20T11:57:06;33.70;81.10
19586;DHT22;9939;49.246;9.106;2023-07-20T11:59:33;34.00;77.50
19586;DHT22;9939;49.246;9.106;2023-07-20T12:02:03;34.30;77.10
19586;DHT22;9939;49.246;9.106;2023-07-20T12:04:31;33.20;78.90
19586;DHT22;9939;49.246;9.106;2023-07-20T12:06:57;34.10;79.40
19586;DHT22;9939;49.246;9.106;2023-07-20T12:09:24;34.90;75.50
19586;DHT22;9939;49.246;9.106;2023-07-20T12:12:09;34.70;75.70
19586;DHT22;9939;49.246;9.106;2023-07-20T12:14:36;32.70;79.10
19586;DHT22;9939;49.246;9.106;2023-07-20T12:17:03;30.80;83.10
19586;DHT22;9939;49.246;9.106;2023-07-20T12:19:30;31.00;84.80
19586;DHT22;9939;49.246;9.106;2023-07-20T12:21:57;32.10;81.50
19586;DHT22;9939;49.246;9.106;2023-07-20T12:24:25;31.70;81.40
19586;DHT22;9939;49.246;9.106;2023-07-20T12:26:55;30.80;83.10
19586;DHT22;9939;49.246;9.106;2023-07-20T12:29:22;30.40;82.50
19586;DHT22;9939;49.246;9.106;2023-07-20T12:31:49;32.20;80.50
19586;DHT22;9939;49.246;9.106;2023-07-20T12:34:17;32.20;78.50
19586;DHT22;9939;49.246;9.106;2023-07-20T12:36:44;30.50;82.50
19586;DHT22;9939;49.246;9.106;2023-07-20T12:39:10;30.20;83.00
19586;DHT22;9939;49.246;9.106;2023-07-20T12:41:37;29.90;84.40
19586;DHT22;9939;49.246;9.106;2023-07-20T12:44:04;30.60;83.60
19586;DHT22;9939;49.246;9.106;2023-07-20T12:46:32;32.50;81.40
19586;DHT22;9939;49.246;9.106;2023-07-20T12:49:01;34.40;79.60
19586;DHT22;9939;49.246;9.106;2023-07-20T12:51:28;36.40;75.00
19586;DHT22;9939;49.246;9.106;2023-07-20T12:53:55;38.60;70.80
19586;DHT22;9939;49.246;9.106;2023-07-20T12:56:22;40.10;67.50
19586;DHT22;9939;49.246;9.106;2023-07-20T12:58:52;39.90;66.80
19586;DHT22;9939;49.246;9.106;2023-07-20T13:01:18;39.90;63.90
19586;DHT22;9939;49.246;9.106;2023-07-20T13:03:45;39.20;64.00
19586;DHT22;9939;49.246;9.106;2023-07-20T13:06:15;40.20;63.30
19586;DHT22;9939;49.246;9.106;2023-07-20T13:08:44;39.90;63.80
19586;DHT22;9939;49.246;9.106;2023-07-20T13:11:11;38.70;63.30
19586;DHT22;9939;49.246;9.106;2023-07-20T13:13:38;40.20;61.80
19586;DHT22;9939;49.246;9.106;2023-07-20T13:16:05;40.90;60.00
19586;DHT22;9939;49.246;9.106;2023-07-20T13:18:31;41.90;58.40
19586;DHT22;9939;49.246;9.106;2023-07-20T13:20:58;40.60;58.60
19586;DHT22;9939;49.246;9.106;2023-07-20T13:23:28;40.80;58.90
19586;DHT22;9939;49.246;9.106;2023-07-20T13:25:55;39.30;59.10
19586;DHT22;9939;49.246;9.106;2023-07-20T13:28:22;39.00;61.10
19586;DHT22;9939;49.246;9.106;2023-07-20T13:30:50;40.10;60.20
19586;DHT22;9939;49.246;9.106;2023-07-20T13:33:18;40.40;59.10
19586;DHT22;9939;49.246;9.106;2023-07-20T13:35:45;41.20;58.60
19586;DHT22;9939;49.246;9.106;2023-07-20T13:38:15;41.00;58.40
19586;DHT22;9939;49.246;9.106;2023-07-20T13:40:43;41.20;58.10
19586;DHT22;9939;49.246;9.106;2023-07-20T13:43:10;41.80;57.70
19586;DHT22;9939;49.246;9.106;2023-07-20T13:45:38;37.70;59.30
19586;DHT22;9939;49.246;9.106;2023-07-20T13:48:06;36.00;63.80
19586;DHT22;9939;49.246;9.106;2023-07-20T13:50:33;37.80;61.30
19586;DHT22;9939;49.246;9.106;2023-07-20T13:53:02;39.10;59.90
19586;DHT22;9939;49.246;9.106;2023-07-20T13:55:32;38.90;59.60
19586;DHT22;9939;49.246;9.106;2023-07-20T13:58:03;36.80;61.10
19586;DHT22;9939;49.246;9.106;2023-07-20T14:00:30;37.20;61.90
19586;DHT22;9939;49.246;9.106;2023-07-20T14:03:01;39.00;58.70
19586;DHT22;9939;49.246;9.106;2023-07-20T14:05:30;39.00;58.90
19586;DHT22;9939;49.246;9.106;2023-07-20T14:08:00;40.30;57.70
19586;DHT22;9939;49.246;9.106;2023-07-20T14:10:27;40.50;57.40
19586;DHT22;9939;49.246;9.106;2023-07-20T14:12:53;41.50;57.80
19586;DHT22;9939;49.246;9.106;2023-07-20T14:15:20;42.40;56.50
19586;DHT22;9939;49.246;9.106;2023-07-20T14:17:47;40.60;56.30
19586;DHT22;9939;49.246;9.106;2023-07-20T14:20:14;40.90;56.90
19586;DHT22;9939;49.246;9.106;2023-07-20T14:22:43;38.10;57.40
19586;DHT22;9939;49.246;9.106;2023-07-20T14:25:11;36.20;59.70
19586;DHT22;9939;49.246;9.106;2023-07-20T14:27:38;35.40;61.50
19586;DHT22;9939;49.246;9.106;2023-07-20T14:30:05;37.50;60.00
19586;DHT22;9939;49.246;9.106;2023-07-20T14:32:32;38.00;59.90
19586;DHT22;9939;49.246;9.106;2023-07-20T14:35:00;41.40;56.60
19586;DHT22;9939;49.246;9.106;2023-07-20T14:37:27;40.80;56.20
19586;DHT22;9939;49.246;9.106;2023-07-20T14:39:55;41.60;56.20
19586;DHT22;9939;49.246;9.106;2023-07-20T14:42:21;38.50;57.50
19586;DHT22;9939;49.246;9.106;2023-07-20T14:44:48;35.70;60.00
19586;DHT22;9939;49.246;9.106;2023-07-20T14:47:16;34.60;64.20
19586;DHT22;9939;49.246;9.106;2023-07-20T14:49:43;36.50;60.30
19586;DHT22;9939;49.246;9.106;2023-07-20T14:52:10;37.30;59.50
19586;DHT22;9939;49.246;9.106;2023-07-20T14:54:39;37.30;59.60
19586;DHT22;9939;49.246;9.106;2023-07-20T14:57:06;38.50;58.10
19586;DHT22;9939;49.246;9.106;2023-07-20T14:59:40;37.50;60.30
19586;DHT22;9939;49.246;9.106;2023-07-20T15:02:08;39.10;57.60
19586;DHT22;9939;49.246;9.106;2023-07-20T15:04:35;40.50;56.50
19586;DHT22;9939;49.246;9.106;2023-07-20T15:07:02;40.20;57.10
19586;DHT22;9939;49.246;9.106;2023-07-20T15:09:29;39.20;57.30
19586;DHT22;9939;49.246;9.106;2023-07-20T15:11:56;39.60;57.90
19586;DHT22;9939;49.246;9.106;2023-07-20T15:14:22;40.00;57.40
19586;DHT22;9939;49.246;9.106;2023-07-20T15:16:49;40.10;56.60
19586;DHT22;9939;49.246;9.106;2023-07-20T15:19:16;37.60;58.70
19586;DHT22;9939;49.246;9.106;2023-07-20T15:21:43;36.20;59.70
19586;DHT22;9939;49.246;9.106;2023-07-20T15:24:10;35.90;60.80
19586;DHT22;9939;49.246;9.106;2023-07-20T15:26:37;35.90;62.10
19586;DHT22;9939;49.246;9.106;2023-07-20T15:29:05;34.70;63.90
19586;DHT22;9939;49.246;9.106;2023-07-20T15:31:32;33.30;65.40
19586;DHT22;9939;49.246;9.106;2023-07-20T15:34:01;32.10;67.10
19586;DHT22;9939;49.246;9.106;2023-07-20T15:36:28;33.20;66.80
19586;DHT22;9939;49.246;9.106;2023-07-20T15:38:55;34.50;62.80
19586;DHT22;9939;49.246;9.106;2023-07-20T15:41:21;34.30;65.40
19586;DHT22;9939;49.246;9.106;2023-07-20T15:43:50;32.90;67.20
19586;DHT22;9939;49.246;9.106;2023-07-20T15:48:46;31.30;71.30
19586;DHT22;9939;49.246;9.106;2023-07-20T15:51:13;31.50;69.20
19586;DHT22;9939;49.246;9.106;2023-07-20T15:53:40;30.50;72.10
19586;DHT22;9939;49.246;9.106;2023-07-20T15:56:07;29.80;71.70
19586;DHT22;9939;49.246;9.106;2023-07-20T15:58:34;29.60;74.40
19586;DHT22;9939;49.246;9.106;2023-07-20T16:01:01;29.50;75.10
19586;DHT22;9939;49.246;9.106;2023-07-20T16:03:28;29.40;74.20
19586;DHT22;9939;49.246;9.106;2023-07-20T16:06:03;28.90;75.70
19586;DHT22;9939;49.246;9.106;2023-07-20T16:08:31;28.90;78.60
19586;DHT22;9939;49.246;9.106;2023-07-20T16:10:58;29.20;76.10
19586;DHT22;9939;49.246;9.106;2023-07-20T16:13:26;29.10;76.30
19586;DHT22;9939;49.246;9.106;2023-07-20T16:15:53;28.90;75.70